Time;durP1;ratioP1;P1;durP2;ratioP2;P2;SDS_P1;SDS_P2;PMS_P1;PMS_P2;Temp;Humidity;BMP_temperature;BMP_pressure;BME280_temperature;BME280_humidity;BME280_pressure;Samples;Min_cycle;Max_cycle;Signal;HPM_P1;HPM_P2
2023/09/17 00:00:41;;;;;;;17.75;10.52;;;15.00;99.90;;;;;;5065314;28;20095;-76
2023/09/17 00:03:07;;;;;;;17.30;10.27;;;15.00;99.90;;;;;;5052788;28;20048;-76
2023/09/17 00:05:34;;;;;;;19.50;10.88;;;15.00;99.90;;;;;;5043585;28;20068;-76
2023/09/17 00:07:59;;;;;;;18.05;10.98;;;15.00;99.90;;;;;;5048297;28;20133;-76
2023/09/17 00:10:25;;;;;;;19.48;10.65;;;15.00;99.90;;;;;;5044108;28;20571;-76
2023/09/17 00:12:55;;;;;;;18.13;10.55;;;15.00;99.90;;;;;;5045063;28;20543;-76
2023/09/17 00:15:27;;;;;;;15.45;10.63;;;14.90;99.90;;;;;;5059981;28;20563;-76
2023/09/17 00:17:53;;;;;;;14.55;9.95;;;14.90;99.90;;;;;;5052948;28;20041;-76
2023/09/17 00:20:18;;;;;;;17.10;10.73;;;14.90;99.90;;;;;;5046806;28;22452;-76
2023/09/17 00:22:44;;;;;;;17.27;10.07;;;15.00;99.90;;;;;;5062628;28;20123;-76
2023/09/17 00:25:09;;;;;;;16.17;10.13;;;14.90;99.90;;;;;;5063784;28;20033;-77
2023/09/17 00:27:35;;;;;;;17.25;10.70;;;15.00;99.90;;;;;;5058930;28;20466;-76
2023/09/17 00:30:01;;;;;;;18.58;10.70;;;14.90;99.90;;;;;;5051499;28;20040;-76
2023/09/17 00:32:26;;;;;;;16.92;9.93;;;14.90;99.90;;;;;;5061429;28;20036;-76
2023/09/17 00:34:52;;;;;;;15.80;10.07;;;14.90;99.90;;;;;;5048080;28;20395;-76
2023/09/17 00:37:18;;;;;;;15.80;9.90;;;14.90;99.90;;;;;;5057242;28;20118;-76
2023/09/17 00:39:44;;;;;;;15.57;9.07;;;14.90;99.90;;;;;;5057429;28;20495;-77
2023/09/17 00:42:10;;;;;;;20.17;10.02;;;14.90;99.90;;;;;;5061677;28;20037;-77
2023/09/17 00:44:36;;;;;;;17.80;10.57;;;14.90;99.90;;;;;;5063736;28;20032;-77
2023/09/17 00:47:04;;;;;;;16.52;9.73;;;15.00;99.90;;;;;;5062872;28;20129;-76
2023/09/17 00:49:32;;;;;;;18.08;10.85;;;15.00;99.90;;;;;;5062427;28;20036;-76
2023/09/17 00:51:58;;;;;;;18.88;10.95;;;15.00;99.90;;;;;;5062351;28;20059;-76
2023/09/17 00:54:27;;;;;;;18.45;10.77;;;14.90;99.90;;;;;;5062121;28;20048;-76
2023/09/17 00:56:54;;;;;;;17.65;10.85;;;15.00;99.90;;;;;;5044101;28;20538;-76
2023/09/17 00:59:20;;;;;;;18.40;10.38;;;15.00;99.90;;;;;;5045285;28;20044;-77
2023/09/17 01:01:46;;;;;;;15.85;9.88;;;15.00;99.90;;;;;;5060954;28;20071;-77
2023/09/17 01:06:46;;;;;;;17.40;11.13;;;15.00;99.90;;;;;;5020514;28;20037;-76
2023/09/17 01:09:13;;;;;;;19.02;11.05;;;15.00;99.90;;;;;;5011383;28;20550;-77
2023/09/17 01:11:39;;;;;;;18.92;10.90;;;15.00;99.90;;;;;;5022920;28;20041;-76
2023/09/17 01:14:15;;;;;;;20.75;11.65;;;15.00;99.90;;;;;;5005678;28;20515;-76
2023/09/17 01:16:45;;;;;;;19.92;11.68;;;15.00;99.90;;;;;;4986682;28;20537;-77
2023/09/17 01:19:33;;;;;;;18.27;12.05;;;15.00;99.90;;;;;;5021840;28;20033;-76
2023/09/17 01:22:38;;;;;;;21.98;11.85;;;15.00;99.90;;;;;;5022645;28;20057;-76
2023/09/17 01:25:11;;;;;;;16.52;11.10;;;15.00;99.90;;;;;;4986424;28;20060;-76
2023/09/17 01:27:41;;;;;;;20.77;11.57;;;15.00;99.90;;;;;;5004555;28;20049;-76
2023/09/17 01:30:15;;;;;;;17.92;12.27;;;15.10;99.90;;;;;;5005302;28;20030;-76
2023/09/17 01:32:42;;;;;;;20.13;11.77;;;15.10;99.90;;;;;;5005541;28;20503;-76
2023/09/17 01:35:09;;;;;;;21.55;12.95;;;15.10;99.90;;;;;;5022633;28;20041;-76
2023/09/17 01:37:39;;;;;;;17.67;11.40;;;15.10;99.90;;;;;;5005984;28;20048;-76
2023/09/17 01:40:11;;;;;;;20.98;12.20;;;15.10;99.90;;;;;;5005834;28;20080;-76
2023/09/17 01:42:44;;;;;;;22.42;12.88;;;15.10;99.90;;;;;;5019018;28;20096;-77
2023/09/17 01:45:14;;;;;;;23.00;12.80;;;15.10;99.90;;;;;;5004290;28;20095;-76
2023/09/17 01:47:42;;;;;;;22.55;12.75;;;15.20;99.90;;;;;;5022443;28;20132;-76
2023/09/17 01:50:09;;;;;;;26.98;14.40;;;15.10;99.90;;;;;;5023238;28;20116;-76
2023/09/17 01:52:37;;;;;;;27.02;13.30;;;15.20;99.90;;;;;;5002212;28;20088;-76
2023/09/17 01:55:03;;;;;;;22.10;12.32;;;15.20;99.90;;;;;;5002911;28;20050;-76
2023/09/17 01:57:29;;;;;;;24.13;13.88;;;15.20;99.90;;;;;;5018762;28;20080;-76
2023/09/17 01:59:55;;;;;;;19.40;12.73;;;15.20;99.90;;;;;;5022590;28;20099;-76
2023/09/17 02:02:21;;;;;;;23.20;13.45;;;15.30;99.90;;;;;;5022484;28;20034;-76
2023/09/17 02:04:47;;;;;;;23.35;12.20;;;15.30;99.90;;;;;;5022555;28;20057;-76
2023/09/17 02:07:15;;;;;;;23.88;12.90;;;15.30;99.90;;;;;;5020919;28;20049;-77
2023/09/17 02:09:41;;;;;;;22.73;13.55;;;15.30;99.90;;;;;;5022365;28;20118;-76
2023/09/17 02:12:06;;;;;;;21.30;12.48;;;15.30;99.90;;;;;;4988289;28;20475;-76
2023/09/17 02:14:32;;;;;;;22.23;13.93;;;15.30;99.90;;;;;;5004268;28;20045;-76
2023/09/17 02:16:57;;;;;;;28.73;13.20;;;15.30;99.90;;;;;;5004672;28;20102;-77
2023/09/17 02:19:25;;;;;;;21.17;13.13;;;15.40;99.90;;;;;;5004178;28;20032;-76
2023/09/17 02:21:53;;;;;;;22.67;12.98;;;15.40;99.90;;;;;;5004775;28;20049;-77
2023/09/17 02:24:22;;;;;;;24.98;13.48;;;15.40;99.90;;;;;;5001022;28;20061;-76
2023/09/17 02:26:48;;;;;;;25.55;12.63;;;15.40;99.90;;;;;;5003437;28;20029;-76
2023/09/17 02:29:13;;;;;;;22.00;13.07;;;15.40;99.90;;;;;;5004437;28;20048;-76
2023/09/17 02:31:39;;;;;;;25.58;15.00;;;15.40;99.90;;;;;;5003909;28;20048;-76
2023/09/17 02:34:05;;;;;;;26.17;14.55;;;15.40;99.90;;;;;;5022845;28;20045;-76
2023/09/17 02:36:30;;;;;;;36.58;15.90;;;15.40;99.90;;;;;;5021937;28;20411;-77
2023/09/17 02:38:56;;;;;;;28.83;14.73;;;15.40;99.90;;;;;;5004459;28;20044;-77
2023/09/17 02:41:22;;;;;;;23.45;14.13;;;15.50;99.90;;;;;;5003169;28;20476;-76
2023/09/17 02:43:48;;;;;;;25.33;13.45;;;15.50;99.90;;;;;;5022313;28;20052;-76
2023/09/17 02:46:14;;;;;;;24.73;13.40;;;15.50;99.90;;;;;;5004727;28;20050;-76
2023/09/17 02:48:39;;;;;;;25.30;13.95;;;15.50;99.90;;;;;;5017117;28;20126;-77
2023/09/17 02:51:05;;;;;;;25.88;14.25;;;15.50;99.90;;;;;;4969462;28;20129;-76
2023/09/17 02:53:30;;;;;;;23.50;13.32;;;15.60;99.90;;;;;;5002165;28;20046;-76
2023/09/17 02:55:57;;;;;;;27.15;14.50;;;15.60;99.90;;;;;;5001163;28;20476;-76
2023/09/17 02:58:23;;;;;;;27.90;14.38;;;15.70;99.90;;;;;;4984950;28;20461;-77
2023/09/17 03:00:49;;;;;;;28.17;14.50;;;15.70;99.90;;;;;;5007142;28;20073;-76
2023/09/17 03:03:15;;;;;;;24.25;14.48;;;15.70;99.90;;;;;;5022344;28;20083;-76
2023/09/17 03:05:47;;;;;;;26.38;14.50;;;15.70;99.90;;;;;;5003970;28;20057;-76
2023/09/17 03:08:13;;;;;;;27.08;14.85;;;15.70;99.90;;;;;;5002672;28;20042;-76
2023/09/17 03:10:42;;;;;;;28.83;15.95;;;15.70;99.90;;;;;;4985101;28;20050;-77
2023/09/17 03:13:14;;;;;;;27.85;13.73;;;15.70;99.90;;;;;;5001201;28;20046;-76
2023/09/17 03:15:40;;;;;;;30.45;16.00;;;15.80;99.90;;;;;;5002460;28;20042;-77
2023/09/17 03:18:05;;;;;;;28.52;14.85;;;15.80;99.90;;;;;;5004287;28;20087;-76
2023/09/17 03:20:34;;;;;;;29.23;15.27;;;15.80;99.90;;;;;;5020586;28;20391;-77
2023/09/17 03:23:02;;;;;;;27.67;14.85;;;15.80;99.90;;;;;;4990040;28;20593;-76
2023/09/17 03:25:30;;;;;;;25.88;13.52;;;15.80;99.90;;;;;;5003224;28;20589;-76
2023/09/17 03:27:56;;;;;;;24.42;13.05;;;15.80;99.90;;;;;;5005455;28;20077;-76
2023/09/17 03:30:23;;;;;;;28.08;16.27;;;15.90;99.90;;;;;;5006983;28;20077;-76
2023/09/17 03:32:49;;;;;;;23.92;12.82;;;15.90;99.90;;;;;;5014823;28;20080;-76
2023/09/17 03:35:14;;;;;;;23.33;14.00;;;15.90;99.90;;;;;;5006607;28;20064;-77
2023/09/17 03:37:40;;;;;;;24.38;13.18;;;15.90;99.90;;;;;;5007130;28;20510;-76
2023/09/17 03:40:10;;;;;;;21.45;13.60;;;15.90;99.90;;;;;;5024944;28;20052;-77
2023/09/17 03:42:38;;;;;;;23.95;14.02;;;15.90;99.90;;;;;;5006291;28;20097;-76
2023/09/17 03:45:09;;;;;;;24.73;13.63;;;15.90;99.90;;;;;;5006905;28;20111;-76
2023/09/17 03:47:36;;;;;;;26.33;13.27;;;15.90;99.90;;;;;;5007998;28;20069;-76
2023/09/17 03:50:04;;;;;;;26.88;14.73;;;16.00;99.90;;;;;;5006882;28;20092;-77
2023/09/17 03:52:30;;;;;;;27.35;15.50;;;16.00;99.90;;;;;;5006261;28;20078;-77
2023/09/17 03:54:56;;;;;;;26.05;14.52;;;16.00;99.90;;;;;;5007060;28;20049;-76
2023/09/17 03:57:22;;;;;;;25.08;14.15;;;16.00;99.90;;;;;;5005814;28;20567;-76
2023/09/17 03:59:48;;;;;;;22.90;12.65;;;16.00;99.90;;;;;;4990504;28;20060;-76
2023/09/17 04:02:14;;;;;;;22.20;13.30;;;16.00;99.90;;;;;;5024155;28;20120;-77
2023/09/17 04:04:40;;;;;;;25.80;13.50;;;16.00;99.90;;;;;;5006857;28;20062;-77
2023/09/17 04:07:05;;;;;;;25.73;13.02;;;16.10;99.90;;;;;;5024834;28;20099;-76
2023/09/17 04:09:31;;;;;;;25.77;14.18;;;16.00;99.90;;;;;;5005970;28;20118;-76
2023/09/17 04:12:03;;;;;;;26.48;14.07;;;16.00;99.90;;;;;;5006045;28;20133;-76
2023/09/17 04:14:31;;;;;;;;;;;16.00;99.90;;;;;;5024857;28;20049;-76
2023/09/17 04:17:02;;;;;;;25.35;13.52;;;16.10;99.90;;;;;;4989888;28;19921;-76
2023/09/17 04:19:29;;;;;;;26.48;12.18;;;16.10;99.90;;;;;;5005817;28;20040;-76
2023/09/17 04:21:54;;;;;;;27.02;13.90;;;16.00;99.90;;;;;;5024547;28;20527;-77
2023/09/17 04:24:20;;;;;;;25.90;14.20;;;16.00;99.90;;;;;;5005954;28;20083;-76
2023/09/17 04:26:46;;;;;;;26.40;12.77;;;16.00;99.90;;;;;;5005532;28;20042;-76
2023/09/17 04:29:12;;;;;;;23.23;13.68;;;16.00;99.90;;;;;;5024132;28;20040;-77
2023/09/17 04:31:38;;;;;;;23.23;14.77;;;16.00;99.90;;;;;;5023593;28;20037;-76
2023/09/17 04:34:04;;;;;;;27.38;14.18;;;16.00;99.90;;;;;;5006730;28;20049;-76
2023/09/17 04:36:30;;;;;;;21.52;13.68;;;16.00;99.90;;;;;;5023558;28;20463;-76
2023/09/17 04:38:56;;;;;;;20.85;13.45;;;16.00;99.90;;;;;;5006610;28;20041;-76
2023/09/17 04:41:21;;;;;;;22.83;13.73;;;15.90;99.90;;;;;;5004553;28;20045;-77
2023/09/17 04:43:47;;;;;;;25.23;13.77;;;16.00;99.90;;;;;;5024107;28;20124;-76
2023/09/17 04:46:13;;;;;;;22.27;12.10;;;16.00;99.90;;;;;;5023348;28;20091;-76
2023/09/17 04:48:39;;;;;;;24.52;13.63;;;16.00;99.90;;;;;;5023178;28;20052;-77
2023/09/17 04:51:07;;;;;;;27.23;15.00;;;16.00;99.90;;;;;;5006933;28;20191;-76
2023/09/17 04:53:33;;;;;;;22.48;12.90;;;16.00;99.90;;;;;;5005982;28;20086;-76
2023/09/17 04:55:59;;;;;;;25.48;13.75;;;16.00;99.90;;;;;;5004548;28;20068;-77
2023/09/17 04:58:25;;;;;;;22.35;13.32;;;15.90;99.90;;;;;;5005619;28;20391;-77
2023/09/17 05:00:53;;;;;;;26.70;14.38;;;16.00;99.90;;;;;;5023457;28;20132;-77
2023/09/17 05:03:19;;;;;;;22.77;13.45;;;16.00;99.90;;;;;;5005855;28;20098;-76
2023/09/17 05:05:46;;;;;;;25.55;14.50;;;15.90;99.90;;;;;;5004968;28;20167;-76
2023/09/17 05:08:13;;;;;;;25.88;14.25;;;16.00;99.90;;;;;;5005426;28;20094;-77
2023/09/17 05:10:39;;;;;;;21.92;13.27;;;16.00;99.90;;;;;;5004907;28;20042;-77
2023/09/17 05:13:05;;;;;;;21.33;12.48;;;16.00;99.90;;;;;;5023269;28;20048;-77
2023/09/17 05:15:31;;;;;;;21.45;12.75;;;16.00;99.90;;;;;;5005661;28;20045;-77
2023/09/17 05:17:56;;;;;;;22.45;13.27;;;16.00;99.90;;;;;;5005585;28;20033;-77
2023/09/17 05:20:23;;;;;;;21.70;12.90;;;16.00;99.90;;;;;;5004957;28;20103;-76
2023/09/17 05:22:49;;;;;;;23.58;13.38;;;16.00;99.90;;;;;;4988415;28;20049;-76
2023/09/17 05:25:14;;;;;;;22.63;13.68;;;16.00;99.90;;;;;;5004920;28;20661;-77
2023/09/17 05:27:40;;;;;;;22.88;11.35;;;16.00;99.90;;;;;;4988088;28;20037;-76
2023/09/17 05:30:07;;;;;;;26.15;13.02;;;16.00;99.90;;;;;;5005968;28;20045;-76
2023/09/17 05:32:33;;;;;;;23.75;12.68;;;16.00;99.90;;;;;;5022822;28;20048;-76
2023/09/17 05:35:06;;;;;;;21.60;12.80;;;16.00;99.90;;;;;;5004898;28;20128;-76
2023/09/17 05:37:32;;;;;;;23.85;12.02;;;16.00;99.90;;;;;;5021386;28;20034;-76
2023/09/17 05:39:58;;;;;;;22.33;13.23;;;16.00;99.90;;;;;;4988639;28;20040;-76
2023/09/17 05:42:23;;;;;;;22.95;12.60;;;16.00;99.90;;;;;;5003726;28;20049;-77
2023/09/17 05:44:49;;;;;;;22.20;12.95;;;16.00;99.90;;;;;;5004659;28;20045;-76
2023/09/17 05:47:15;;;;;;;22.85;12.23;;;16.00;99.90;;;;;;5004796;28;20038;-76
2023/09/17 05:49:40;;;;;;;25.80;13.77;;;16.00;99.90;;;;;;5004813;28;20140;-77
2023/09/17 05:52:06;;;;;;;24.02;14.55;;;16.10;99.90;;;;;;5005214;28;20057;-76
2023/09/17 05:54:32;;;;;;;23.27;14.10;;;16.10;99.90;;;;;;5004572;28;20115;-76
2023/09/17 05:56:58;;;;;;;24.85;13.77;;;16.10;99.90;;;;;;5021385;28;20616;-76
2023/09/17 05:59:23;;;;;;;26.08;13.98;;;16.10;99.90;;;;;;5022049;28;20045;-77
2023/09/17 06:01:50;;;;;;;25.48;13.63;;;16.10;99.90;;;;;;5004629;28;20075;-76
2023/09/17 06:04:15;;;;;;;25.75;14.90;;;16.10;99.90;;;;;;5004738;28;20053;-76
2023/09/17 06:06:41;;;;;;;24.08;14.18;;;16.10;99.90;;;;;;5004428;28;20059;-77
2023/09/17 06:09:06;;;;;;;26.27;13.63;;;16.20;99.90;;;;;;5006412;28;20045;-77
2023/09/17 06:11:32;;;;;;;29.98;14.88;;;16.20;99.90;;;;;;5003261;28;20041;-76
2023/09/17 06:13:57;;;;;;;24.42;13.63;;;16.20;99.90;;;;;;5021253;28;20602;-77
2023/09/17 06:16:23;;;;;;;22.30;13.15;;;16.20;99.90;;;;;;5021730;28;20504;-76
2023/09/17 06:18:49;;;;;;;21.73;13.40;;;16.20;99.90;;;;;;4988489;28;20068;-76
2023/09/17 06:21:15;;;;;;;24.17;12.68;;;16.20;99.90;;;;;;5021755;28;20076;-77
2023/09/17 06:23:40;;;;;;;20.90;11.65;;;16.30;99.90;;;;;;4992542;28;20464;-77
2023/09/17 06:26:07;;;;;;;25.45;13.82;;;16.30;99.90;;;;;;5004964;28;20044;-76
2023/09/17 06:28:33;;;;;;;22.67;12.77;;;16.30;99.90;;;;;;5019280;28;20041;-76
2023/09/17 06:31:02;;;;;;;22.20;12.85;;;16.30;99.90;;;;;;4996126;28;20080;-76
2023/09/17 06:33:28;;;;;;;26.42;13.77;;;16.40;99.90;;;;;;4998949;28;20049;-77
2023/09/17 06:35:54;;;;;;;23.98;12.52;;;16.40;99.90;;;;;;5016581;28;20527;-76
2023/09/17 06:38:20;;;;;;;23.73;13.80;;;16.40;99.90;;;;;;5005042;28;20080;-77
2023/09/17 06:40:45;;;;;;;26.77;13.20;;;16.40;99.90;;;;;;5003168;28;20045;-77
2023/09/17 06:43:12;;;;;;;22.05;13.48;;;16.40;99.90;;;;;;5022019;28;20048;-77
2023/09/17 06:45:38;;;;;;;23.42;12.93;;;16.40;99.90;;;;;;5004693;28;20081;-76
2023/09/17 06:48:04;;;;;;;25.45;13.82;;;16.50;99.90;;;;;;5004643;28;20065;-76
2023/09/17 06:50:30;;;;;;;24.00;13.27;;;16.50;99.90;;;;;;5004563;28;20038;-76
2023/09/17 06:52:55;;;;;;;22.92;13.02;;;16.50;99.90;;;;;;5003999;28;20049;-76
2023/09/17 06:55:21;;;;;;;20.67;12.65;;;16.50;99.90;;;;;;5020412;28;20060;-77
2023/09/17 06:57:47;;;;;;;20.98;12.80;;;16.50;99.90;;;;;;5023978;28;20042;-77
2023/09/17 07:00:14;;;;;;;23.42;13.07;;;16.50;99.90;;;;;;5022569;28;20041;-76
2023/09/17 07:02:39;;;;;;;21.30;12.73;;;16.50;99.90;;;;;;4996976;28;20049;-76
2023/09/17 07:05:07;;;;;;;22.15;12.80;;;16.50;99.90;;;;;;5016791;28;20054;-76
2023/09/17 07:07:33;;;;;;;24.80;13.98;;;16.50;99.90;;;;;;5022028;28;20730;-76
2023/09/17 07:10:00;;;;;;;24.17;13.70;;;16.60;99.90;;;;;;5000527;28;20139;-76
2023/09/17 07:12:26;;;;;;;20.48;12.25;;;16.60;99.90;;;;;;5015290;28;20767;-76
2023/09/17 07:14:51;;;;;;;27.27;13.07;;;16.60;99.90;;;;;;5020411;28;20079;-77
2023/09/17 07:17:17;;;;;;;21.42;13.40;;;16.60;99.90;;;;;;5015189;28;20044;-77
2023/09/17 07:19:43;;;;;;;22.45;12.88;;;16.60;99.90;;;;;;4996350;28;20072;-77
2023/09/17 07:22:11;;;;;;;23.23;13.18;;;16.60;99.90;;;;;;5019547;28;20069;-76
2023/09/17 07:24:37;;;;;;;21.38;12.82;;;16.60;99.90;;;;;;5003671;28;20260;-76
2023/09/17 07:27:03;;;;;;;24.90;11.40;;;16.60;99.90;;;;;;5002092;28;20052;-76
2023/09/17 07:29:29;;;;;;;20.00;12.77;;;16.70;99.90;;;;;;5018076;28;20049;-76
2023/09/17 07:31:55;;;;;;;18.73;11.90;;;16.60;99.90;;;;;;5005515;28;20053;-76
2023/09/17 07:34:20;;;;;;;20.48;12.43;;;16.70;99.90;;;;;;4987356;28;20484;-77
2023/09/17 07:36:46;;;;;;;24.55;13.18;;;16.70;99.90;;;;;;5001716;28;20045;-76
2023/09/17 07:39:12;;;;;;;23.95;12.60;;;16.70;99.90;;;;;;5005913;28;20042;-76
2023/09/17 07:41:37;;;;;;;24.85;14.18;;;16.70;99.90;;;;;;5007130;28;20068;-76
2023/09/17 07:44:03;;;;;;;22.60;12.23;;;16.70;99.90;;;;;;5007343;28;20048;-78
2023/09/17 07:46:29;;;;;;;22.80;12.93;;;16.70;99.90;;;;;;5017814;28;20057;-76
2023/09/17 07:48:55;;;;;;;19.20;11.98;;;16.70;99.90;;;;;;5000162;28;20044;-76
2023/09/17 07:51:20;;;;;;;24.00;12.98;;;16.60;99.90;;;;;;4981078;28;20576;-76
2023/09/17 07:53:46;;;;;;;23.88;13.18;;;16.70;99.90;;;;;;4990452;28;20048;-76
2023/09/17 07:56:12;;;;;;;19.23;11.65;;;16.70;99.90;;;;;;4986696;28;20048;-76
2023/09/17 07:58:38;;;;;;;23.05;12.30;;;16.70;99.90;;;;;;4998419;28;20452;-76
2023/09/17 08:01:06;;;;;;;20.00;11.50;;;16.70;99.90;;;;;;4996618;28;20046;-77
2023/09/17 08:03:32;;;;;;;21.80;12.45;;;16.70;99.90;;;;;;5007126;28;20034;-76
2023/09/17 08:05:59;;;;;;;23.40;11.70;;;16.70;99.90;;;;;;4989765;28;20061;-76
2023/09/17 08:08:26;;;;;;;28.42;12.57;;;16.70;99.90;;;;;;4985731;28;20056;-76
2023/09/17 08:10:52;;;;;;;22.85;12.77;;;16.70;99.90;;;;;;5002530;28;20049;-75
2023/09/17 08:13:18;;;;;;;21.08;12.60;;;16.70;99.90;;;;;;5024044;28;20045;-78
2023/09/17 08:15:43;;;;;;;18.13;11.82;;;16.70;99.90;;;;;;5006157;28;20116;-75
2023/09/17 08:18:09;;;;;;;20.60;13.32;;;16.70;99.90;;;;;;5019988;28;20056;-75
2023/09/17 08:20:34;;;;;;;23.38;12.68;;;16.80;99.90;;;;;;5006732;28;20469;-76
2023/09/17 08:23:00;;;;;;;22.63;12.60;;;16.80;99.90;;;;;;5004576;28;20482;-77
2023/09/17 08:25:26;;;;;;;23.42;13.75;;;16.80;99.90;;;;;;5003990;28;20504;-75
2023/09/17 08:27:53;;;;;;;25.35;12.00;;;16.80;99.90;;;;;;5004231;28;20051;-76
2023/09/17 08:30:20;;;;;;;22.20;12.40;;;16.80;99.90;;;;;;5002907;28;20120;-76
2023/09/17 08:32:46;;;;;;;23.65;13.38;;;16.80;99.90;;;;;;4993767;28;20048;-76
2023/09/17 08:35:15;;;;;;;25.73;14.05;;;16.80;99.90;;;;;;5001303;28;20115;-76
2023/09/17 08:37:42;;;;;;;23.25;13.25;;;16.80;99.90;;;;;;5005504;28;20056;-76
2023/09/17 08:40:09;;;;;;;26.00;13.13;;;16.80;99.90;;;;;;5017077;28;20046;-78
2023/09/17 08:42:38;;;;;;;28.70;13.98;;;16.80;99.90;;;;;;5019599;28;20047;-77
2023/09/17 08:45:05;;;;;;;26.98;14.35;;;16.90;99.90;;;;;;4987101;28;20042;-77
2023/09/17 08:47:31;;;;;;;22.65;12.90;;;16.90;99.90;;;;;;5005933;28;20145;-81
2023/09/17 08:49:57;;;;;;;29.42;15.35;;;16.90;99.90;;;;;;4988892;28;20038;-78
2023/09/17 08:52:26;;;;;;;27.60;14.48;;;16.80;99.90;;;;;;5004540;28;20049;-77
2023/09/17 08:54:53;;;;;;;30.55;15.25;;;16.80;99.90;;;;;;5003992;28;20041;-78
2023/09/17 08:57:23;;;;;;;27.40;14.35;;;16.80;99.90;;;;;;5022202;28;20137;-78
2023/09/17 08:59:57;;;;;;;27.13;14.55;;;16.80;99.90;;;;;;5005762;28;20579;-78
2023/09/17 09:02:29;;;;;;;26.00;12.90;;;16.80;99.90;;;;;;5003984;28;20041;-78
2023/09/17 09:04:55;;;;;;;;;;;16.80;99.90;;;;;;5005243;28;20049;-78
2023/09/17 09:07:25;;;;;;;24.17;13.15;;;16.80;99.90;;;;;;4996428;28;19935;-78
2023/09/17 09:09:51;;;;;;;28.10;15.13;;;16.80;99.90;;;;;;4988246;28;20124;-78
2023/09/17 09:12:18;;;;;;;25.05;14.55;;;16.80;99.90;;;;;;5001375;28;20045;-78
2023/09/17 09:14:44;;;;;;;29.38;14.57;;;16.80;99.90;;;;;;5000804;28;20077;-78
2023/09/17 09:17:11;;;;;;;30.63;16.30;;;16.80;99.90;;;;;;5003717;28;20125;-78
2023/09/17 09:19:37;;;;;;;30.05;16.55;;;16.70;99.90;;;;;;5022005;28;20048;-78
2023/09/17 09:22:03;;;;;;;29.85;15.00;;;16.70;99.90;;;;;;4997706;28;20042;-80
2023/09/17 09:24:40;;;;;;;28.98;15.73;;;16.70;99.90;;;;;;5000157;28;20049;-79
2023/09/17 09:27:06;;;;;;;29.45;15.27;;;16.70;99.90;;;;;;4996276;28;20077;-78
2023/09/17 09:29:32;;;;;;;28.63;16.05;;;16.80;99.90;;;;;;5013530;28;20063;-78
2023/09/17 09:31:59;;;;;;;32.47;16.15;;;16.70;99.90;;;;;;5005188;28;20054;-77
2023/09/17 09:34:27;;;;;;;31.52;17.27;;;16.80;99.90;;;;;;5021472;28;20552;-77
2023/09/17 09:36:54;;;;;;;26.85;16.77;;;16.80;99.90;;;;;;4998812;28;20045;-76
2023/09/17 09:39:20;;;;;;;34.63;16.50;;;16.80;99.90;;;;;;5022363;28;20124;-78
2023/09/17 09:41:46;;;;;;;28.52;15.65;;;16.70;99.90;;;;;;5003417;28;20064;-77
2023/09/17 09:44:12;;;;;;;28.33;16.60;;;16.70;99.90;;;;;;5000801;28;20046;-78
2023/09/17 09:46:38;;;;;;;37.63;16.95;;;16.70;99.90;;;;;;5001411;28;20103;-79
2023/09/17 09:49:04;;;;;;;31.45;15.88;;;16.60;99.90;;;;;;5000792;28;20760;-78
2023/09/17 09:51:31;;;;;;;26.52;14.10;;;16.60;99.90;;;;;;5021989;28;20091;-78
2023/09/17 09:53:57;;;;;;;28.65;14.20;;;16.50;99.90;;;;;;5004091;28;20045;-80
2023/09/17 09:56:27;;;;;;;22.20;13.85;;;16.50;99.90;;;;;;5000546;28;20049;-79
2023/09/17 09:58:55;;;;;;;24.75;13.13;;;16.40;99.90;;;;;;5004785;28;20049;-79
2023/09/17 10:01:20;;;;;;;27.38;14.10;;;16.40;99.90;;;;;;5022246;28;20045;-78
2023/09/17 10:03:47;;;;;;;20.50;12.35;;;16.40;99.90;;;;;;5005007;28;20049;-81
2023/09/17 10:06:14;;;;;;;20.90;11.00;;;16.30;99.90;;;;;;5003546;28;20102;-78
2023/09/17 10:08:40;;;;;;;23.85;12.60;;;16.40;99.90;;;;;;5005146;28;20049;-78
2023/09/17 10:11:09;;;;;;;24.10;11.65;;;16.30;99.90;;;;;;5022198;28;20043;-79
2023/09/17 10:13:35;;;;;;;21.58;11.90;;;16.30;99.90;;;;;;5004579;28;20057;-79
2023/09/17 10:16:02;;;;;;;24.38;13.27;;;16.30;99.90;;;;;;5004787;28;20071;-78
2023/09/17 10:18:30;;;;;;;22.58;12.07;;;16.20;99.90;;;;;;5004821;28;20056;-79
2023/09/17 10:20:56;;;;;;;22.58;12.23;;;16.30;99.90;;;;;;5004476;28;20396;-77
2023/09/17 10:23:23;;;;;;;22.92;12.35;;;16.30;99.90;;;;;;5004461;28;20084;-78
2023/09/17 10:25:50;;;;;;;25.02;12.93;;;16.30;99.90;;;;;;5014144;28;20053;-79
2023/09/17 10:28:19;;;;;;;19.63;12.40;;;16.30;99.90;;;;;;4984840;28;20065;-77
2023/09/17 10:30:46;;;;;;;21.73;12.10;;;16.40;99.90;;;;;;4994753;28;20434;-78
2023/09/17 10:33:14;;;;;;;24.85;13.10;;;16.40;99.90;;;;;;4991973;28;20167;-78
2023/09/17 10:35:42;;;;;;;28.08;14.25;;;16.40;99.90;;;;;;5008483;28;20053;-77
2023/09/17 10:38:09;;;;;;;30.45;13.68;;;16.40;99.90;;;;;;5008803;28;20171;-79
2023/09/17 10:40:36;;;;;;;25.42;11.35;;;16.40;99.90;;;;;;5007721;28;20502;-79
2023/09/17 10:43:04;;;;;;;22.83;11.63;;;16.40;99.90;;;;;;5026185;28;20191;-79
2023/09/17 10:45:35;;;;;;;21.40;10.65;;;16.40;99.90;;;;;;5000873;28;20094;-78
2023/09/17 10:48:02;;;;;;;19.75;10.13;;;16.40;99.90;;;;;;5004228;28;20059;-80
2023/09/17 10:50:31;;;;;;;17.55;10.15;;;16.40;99.90;;;;;;5008548;28;20072;-78
2023/09/17 10:52:56;;;;;;;15.57;10.13;;;16.40;99.90;;;;;;5008242;28;20041;-78
2023/09/17 10:55:25;;;;;;;17.65;11.60;;;16.40;99.90;;;;;;5019178;28;20504;-78
2023/09/17 10:58:03;;;;;;;18.45;10.88;;;16.40;99.90;;;;;;5015087;28;20042;-78
2023/09/17 11:00:33;;;;;;;21.02;10.82;;;16.40;99.90;;;;;;5021585;28;20434;-79
2023/09/17 11:03:01;;;;;;;17.10;11.20;;;16.40;99.90;;;;;;5007596;28;20053;-78
2023/09/17 11:05:28;;;;;;;21.65;12.73;;;16.40;99.90;;;;;;5007284;28;20046;-79
2023/09/17 11:08:02;;;;;;;21.98;11.68;;;16.40;99.90;;;;;;5000973;28;20054;-79
2023/09/17 11:10:28;;;;;;;21.88;11.40;;;16.50;99.90;;;;;;5000611;28;20029;-78
2023/09/17 11:12:54;;;;;;;20.13;11.85;;;16.50;99.90;;;;;;5007721;28;20029;-79
2023/09/17 11:15:20;;;;;;;21.48;12.48;;;16.60;99.90;;;;;;5007028;28;20044;-78
2023/09/17 11:17:50;;;;;;;18.50;12.73;;;16.60;99.90;;;;;;5007438;28;20502;-78
2023/09/17 11:20:20;;;;;;;17.92;11.52;;;16.60;99.90;;;;;;5007075;28;20037;-78
2023/09/17 11:22:52;;;;;;;17.65;11.40;;;16.70;99.90;;;;;;5007858;28;20068;-78
2023/09/17 11:25:39;;;;;;;19.10;11.20;;;16.70;99.90;;;;;;5020950;28;20116;-78
2023/09/17 11:28:14;;;;;;;21.48;11.10;;;16.70;99.90;;;;;;4981886;28;20183;-79
2023/09/17 11:30:57;;;;;;;20.30;10.07;;;16.80;99.90;;;;;;5007645;28;20042;-79
2023/09/17 11:33:23;;;;;;;17.10;10.50;;;16.80;99.90;;;;;;4997187;28;20060;-78
2023/09/17 11:35:49;;;;;;;16.30;9.00;;;16.80;99.90;;;;;;4989221;28;20045;-78
2023/09/17 11:38:23;;;;;;;14.43;9.13;;;16.80;99.90;;;;;;5025281;28;20056;-78
2023/09/17 11:41:09;;;;;;;17.40;8.63;;;16.80;99.90;;;;;;4989863;28;20095;-79
2023/09/17 11:43:37;;;;;;;15.35;8.93;;;16.80;99.90;;;;;;4991464;28;20126;-80
2023/09/17 11:46:10;;;;;;;17.80;10.32;;;16.80;99.90;;;;;;4987097;28;20109;-78
2023/09/17 11:48:37;;;;;;;13.30;8.40;;;16.80;99.90;;;;;;5001772;28;20053;-79
2023/09/17 11:51:29;;;;;;;13.23;8.75;;;16.80;99.90;;;;;;5007172;28;20045;-79
2023/09/17 11:54:01;;;;;;;10.68;7.90;;;16.70;99.90;;;;;;5011970;28;20033;-78
2023/09/17 11:56:29;;;;;;;13.43;8.13;;;16.70;99.90;;;;;;5024066;28;20042;-78
2023/09/17 11:59:05;;;;;;;13.30;9.07;;;16.70;99.90;;;;;;5003310;28;20036;-78
2023/09/17 12:01:35;;;;;;;13.65;7.90;;;16.70;99.90;;;;;;4997847;28;20091;-79
2023/09/17 12:04:04;;;;;;;13.60;8.05;;;16.70;99.90;;;;;;5003856;28;20044;-78
2023/09/17 12:06:30;;;;;;;11.88;7.90;;;16.70;99.90;;;;;;5022075;28;20046;-78
2023/09/17 12:09:00;;;;;;;15.25;8.02;;;16.80;99.90;;;;;;4990587;28;20041;-78
2023/09/17 12:11:28;;;;;;;12.75;9.05;;;16.80;99.90;;;;;;4984195;28;20048;-78
2023/09/17 12:13:56;;;;;;;13.13;8.35;;;16.90;99.90;;;;;;5015444;28;20053;-79
2023/09/17 12:16:26;;;;;;;14.10;8.88;;;16.90;99.90;;;;;;4988506;28;20054;-79
2023/09/17 12:18:53;;;;;;;13.30;8.95;;;17.00;99.90;;;;;;4992923;28;20052;-78
2023/09/17 12:21:27;;;;;;;15.57;9.35;;;17.10;99.90;;;;;;5005115;28;20045;-78
2023/09/17 12:24:04;;;;;;;16.00;9.10;;;17.10;99.90;;;;;;5001458;28;20049;-78
2023/09/17 12:26:46;;;;;;;15.93;9.70;;;17.20;99.90;;;;;;4999306;28;20059;-78
2023/09/17 12:29:13;;;;;;;18.17;9.82;;;17.20;99.90;;;;;;5005677;28;20392;-79
2023/09/17 12:31:39;;;;;;;18.55;10.27;;;17.20;99.90;;;;;;5005534;28;20499;-78